Time;durP1;ratioP1;P1;durP2;ratioP2;P2;SDS_P1;SDS_P2;PMS_P1;PMS_P2;Temp;Humidity;BMP_temperature;BMP_pressure;BME280_temperature;BME280_humidity;BME280_pressure;Samples;Min_cycle;Max_cycle;Signal;HPM_P1;HPM_P2
2021/11/27 00:01:01;;;;;;;13.43;7.10;;;6.30;90.60;;;;;;4956838;28;20031;-63
2021/11/27 00:03:27;;;;;;;11.40;6.88;;;6.30;90.50;;;;;;4962924;28;20860;-64
2021/11/27 00:05:54;;;;;;;10.50;6.25;;;6.30;90.50;;;;;;4975439;28;20034;-64
2021/11/27 00:08:20;;;;;;;12.30;8.32;;;6.30;90.50;;;;;;4957870;28;20102;-63
2021/11/27 00:10:49;;;;;;;14.85;7.90;;;6.30;90.50;;;;;;4975931;28;20038;-64
2021/11/27 00:13:16;;;;;;;13.02;7.10;;;6.30;90.50;;;;;;4973877;28;20027;-64
2021/11/27 00:15:43;;;;;;;11.90;6.95;;;6.30;90.60;;;;;;4964511;28;20045;-65
2021/11/27 00:18:10;;;;;;;11.48;6.78;;;6.30;90.60;;;;;;4972857;28;20023;-65
2021/11/27 00:20:43;;;;;;;11.82;7.32;;;6.40;90.60;;;;;;4975841;28;20158;-63
2021/11/27 00:23:09;;;;;;;12.20;7.25;;;6.30;90.50;;;;;;4962066;28;20027;-63
2021/11/27 00:25:35;;;;;;;14.05;7.80;;;6.30;90.60;;;;;;4974894;28;20133;-64
2021/11/27 00:28:01;;;;;;;12.27;7.00;;;6.40;90.60;;;;;;4957864;28;20459;-63
2021/11/27 00:30:31;;;;;;;13.68;7.75;;;6.30;90.50;;;;;;4973744;28;20474;-63
2021/11/27 00:32:57;;;;;;;11.77;7.28;;;6.30;90.50;;;;;;4959233;28;20102;-63
2021/11/27 00:35:23;;;;;;;12.27;7.35;;;6.30;90.50;;;;;;4974276;28;20173;-63
2021/11/27 00:37:51;;;;;;;15.27;7.30;;;6.30;90.50;;;;;;4974194;28;20039;-63
2021/11/27 00:40:17;;;;;;;11.13;7.07;;;6.20;90.60;;;;;;4974288;28;20169;-64
2021/11/27 00:42:44;;;;;;;14.73;8.07;;;6.30;90.60;;;;;;4974025;28;20121;-64
2021/11/27 00:45:12;;;;;;;12.75;6.93;;;6.30;90.60;;;;;;4973371;28;20524;-64
2021/11/27 00:47:42;;;;;;;14.57;7.82;;;6.30;90.60;;;;;;4974659;28;20097;-64
2021/11/27 00:50:10;;;;;;;12.95;7.38;;;6.30;90.60;;;;;;4971152;28;20030;-63
2021/11/27 00:52:36;;;;;;;12.95;7.63;;;6.30;90.60;;;;;;4974900;28;20031;-63
2021/11/27 00:55:02;;;;;;;14.13;6.78;;;6.30;90.60;;;;;;4961042;28;20669;-63
2021/11/27 00:57:28;;;;;;;11.73;8.07;;;6.30;90.60;;;;;;4964908;28;20046;-63
2021/11/27 00:59:54;;;;;;;10.60;6.90;;;6.20;90.60;;;;;;4972030;28;20027;-64
2021/11/27 01:02:19;;;;;;;13.18;7.63;;;6.30;90.60;;;;;;4964245;28;20114;-64
2021/11/27 01:04:45;;;;;;;11.68;7.00;;;6.30;90.60;;;;;;4968734;28;20046;-64
2021/11/27 01:07:11;;;;;;;13.38;8.02;;;6.20;90.70;;;;;;4974984;28;20102;-64
2021/11/27 01:09:38;;;;;;;10.00;6.65;;;6.20;90.60;;;;;;4970227;28;20035;-64
2021/11/27 01:12:04;;;;;;;12.10;7.32;;;6.20;90.60;;;;;;4974454;28;20034;-64
2021/11/27 01:14:32;;;;;;;14.75;7.78;;;6.20;90.60;;;;;;4973826;28;20038;-63
2021/11/27 01:17:04;;;;;;;12.05;6.95;;;6.20;90.70;;;;;;4974262;28;20066;-63
2021/11/27 01:19:31;;;;;;;12.70;7.00;;;6.20;90.70;;;;;;4972323;28;20034;-63
2021/11/27 01:22:01;;;;;;;10.95;6.68;;;6.10;90.60;;;;;;4972350;28;20350;-63
2021/11/27 01:24:27;;;;;;;12.40;7.28;;;6.10;90.60;;;;;;4971350;28;20362;-63
2021/11/27 01:26:54;;;;;;;16.13;6.82;;;6.10;90.70;;;;;;4955133;29;20082;-63
2021/11/27 01:29:21;;;;;;;14.13;7.70;;;6.00;90.70;;;;;;4962987;28;20035;-63
2021/11/27 01:31:46;;;;;;;14.57;7.55;;;6.00;90.80;;;;;;4957184;28;20045;-63
2021/11/27 01:34:12;;;;;;;13.40;8.00;;;6.00;90.80;;;;;;4937340;28;20027;-64
2021/11/27 01:36:38;;;;;;;12.80;7.55;;;5.90;90.80;;;;;;4966262;28;20836;-63
2021/11/27 01:39:06;;;;;;;15.95;8.38;;;5.90;90.80;;;;;;4973742;28;20034;-63
2021/11/27 01:41:33;;;;;;;13.23;6.72;;;5.90;90.80;;;;;;4962938;28;20062;-63
2021/11/27 01:43:58;;;;;;;9.65;6.70;;;5.80;90.80;;;;;;4967050;28;20363;-63
2021/11/27 01:46:24;;;;;;;12.35;7.53;;;5.80;90.80;;;;;;4961398;28;20027;-63
2021/11/27 01:48:50;;;;;;;10.07;6.88;;;5.70;90.90;;;;;;4973390;28;20088;-63
2021/11/27 01:51:22;;;;;;;11.82;7.25;;;5.70;90.90;;;;;;4968607;28;20030;-63
2021/11/27 01:53:56;;;;;;;13.82;7.72;;;5.60;91.00;;;;;;4957913;28;20039;-63
2021/11/27 01:56:27;;;;;;;12.23;7.55;;;5.60;91.00;;;;;;4972954;28;20525;-63
2021/11/27 01:58:54;;;;;;;15.30;7.15;;;5.50;91.00;;;;;;4972929;28;20042;-64
2021/11/27 02:01:23;;;;;;;12.38;7.22;;;5.40;91.10;;;;;;4957383;28;20517;-63
2021/11/27 02:03:50;;;;;;;12.25;7.43;;;5.40;91.10;;;;;;4964024;28;20034;-63
2021/11/27 02:06:18;;;;;;;13.15;7.95;;;5.40;91.20;;;;;;4973772;28;20035;-63
2021/11/27 02:08:45;;;;;;;11.77;7.45;;;5.40;91.20;;;;;;4970173;28;20030;-64
2021/11/27 02:11:16;;;;;;;12.23;7.05;;;5.30;91.30;;;;;;4971984;28;20057;-63
2021/11/27 02:13:41;;;;;;;15.38;7.93;;;5.30;91.30;;;;;;4971223;28;20042;-63
2021/11/27 02:16:07;;;;;;;13.13;7.60;;;5.30;91.40;;;;;;4973649;28;20030;-63
2021/11/27 02:21:06;;;;;;;17.17;7.70;;;5.20;91.50;;;;;;4965641;28;20026;-64
2021/11/27 02:23:33;;;;;;;15.15;8.02;;;5.20;91.60;;;;;;4970592;28;20027;-64
2021/11/27 02:26:00;;;;;;;12.90;7.38;;;5.10;91.60;;;;;;4972532;28;20449;-63
2021/11/27 02:28:27;;;;;;;13.73;7.32;;;5.10;91.60;;;;;;4972506;28;20501;-62
2021/11/27 02:30:53;;;;;;;14.65;7.57;;;5.10;91.70;;;;;;4970844;28;20454;-64
2021/11/27 02:33:19;;;;;;;12.70;7.55;;;5.00;91.70;;;;;;4973332;28;20137;-64
2021/11/27 02:35:44;;;;;;;13.48;7.88;;;5.00;91.80;;;;;;4972329;28;20031;-64
2021/11/27 02:38:10;;;;;;;13.75;7.97;;;4.90;91.90;;;;;;4973550;28;20031;-64
2021/11/27 02:40:37;;;;;;;14.68;7.85;;;4.90;91.90;;;;;;4972333;28;20089;-64
2021/11/27 02:43:03;;;;;;;14.93;7.22;;;4.90;92.00;;;;;;4953579;28;20086;-64
2021/11/27 02:45:28;;;;;;;12.00;7.30;;;4.90;92.00;;;;;;4960475;28;20035;-64
2021/11/27 02:47:54;;;;;;;14.48;8.38;;;4.80;92.00;;;;;;4972417;28;20037;-64
2021/11/27 02:50:20;;;;;;;14.70;8.07;;;4.80;92.10;;;;;;4954604;28;20042;-63
2021/11/27 02:52:45;;;;;;;11.98;7.45;;;4.80;92.10;;;;;;4968871;28;20073;-64
2021/11/27 02:55:12;;;;;;;13.45;7.90;;;4.80;92.20;;;;;;4971684;28;20046;-64
2021/11/27 02:57:38;;;;;;;14.00;7.72;;;4.70;92.20;;;;;;4972193;28;20094;-64
2021/11/27 03:00:11;;;;;;;11.48;7.63;;;4.70;92.40;;;;;;4968813;28;20574;-63
2021/11/27 03:02:37;;;;;;;16.33;8.05;;;4.70;92.40;;;;;;4956619;28;20023;-63
2021/11/27 03:05:03;;;;;;;15.02;7.65;;;4.70;92.40;;;;;;4971092;28;20482;-63
2021/11/27 03:07:29;;;;;;;14.32;7.20;;;4.70;92.40;;;;;;4971949;28;20121;-64
2021/11/27 03:09:55;;;;;;;12.15;7.38;;;4.80;92.40;;;;;;4954924;28;20138;-63
2021/11/27 03:12:21;;;;;;;17.35;8.63;;;4.80;92.40;;;;;;4955515;28;20486;-63
2021/11/27 03:14:47;;;;;;;11.25;6.45;;;4.70;92.40;;;;;;4953846;29;20036;-63
2021/11/27 03:17:14;;;;;;;13.75;7.93;;;4.70;92.50;;;;;;4966268;28;20030;-63
2021/11/27 03:19:41;;;;;;;13.88;7.35;;;4.70;92.50;;;;;;4971694;28;20030;-63
2021/11/27 03:22:08;;;;;;;17.60;7.90;;;4.60;92.50;;;;;;4970064;28;20478;-63
2021/11/27 03:24:35;;;;;;;12.15;7.25;;;4.60;92.50;;;;;;4971524;28;20081;-63
2021/11/27 03:27:01;;;;;;;14.73;8.25;;;4.60;92.50;;;;;;4949284;29;20046;-63
2021/11/27 03:29:27;;;;;;;14.10;7.68;;;4.60;92.50;;;;;;4960161;28;20034;-63
2021/11/27 03:32:09;;;;;;;13.65;7.65;;;4.50;92.50;;;;;;4962494;28;20037;-63
2021/11/27 03:34:35;;;;;;;13.35;7.97;;;4.50;92.60;;;;;;4967586;28;20039;-63
2021/11/27 03:37:01;;;;;;;13.50;8.45;;;4.50;92.60;;;;;;4971801;28;20421;-63
2021/11/27 03:39:27;;;;;;;16.52;8.88;;;4.50;92.60;;;;;;4972403;28;20122;-63
2021/11/27 03:41:53;;;;;;;15.30;7.82;;;4.40;92.60;;;;;;4966758;28;20027;-63
2021/11/27 03:44:19;;;;;;;13.43;7.32;;;4.40;92.70;;;;;;4972460;28;20169;-63
2021/11/27 03:46:45;;;;;;;12.00;7.65;;;4.40;92.80;;;;;;4962170;28;20035;-64
2021/11/27 03:49:11;;;;;;;11.95;7.13;;;4.40;92.80;;;;;;4953167;28;20054;-63
2021/11/27 03:51:37;;;;;;;13.68;7.70;;;4.40;92.80;;;;;;4965349;28;20034;-63
2021/11/27 03:54:04;;;;;;;13.20;8.02;;;4.30;92.80;;;;;;4958928;28;20031;-63
2021/11/27 03:56:30;;;;;;;13.20;7.80;;;4.30;92.80;;;;;;4964350;28;20461;-63
2021/11/27 03:59:00;;;;;;;13.43;7.40;;;4.40;92.90;;;;;;4954203;28;20038;-63
2021/11/27 04:01:26;;;;;;;15.15;9.23;;;4.30;92.90;;;;;;4977742;28;20042;-63
2021/11/27 04:03:55;;;;;;;15.48;7.40;;;4.30;92.90;;;;;;4971420;28;20039;-64
2021/11/27 04:06:21;;;;;;;14.88;8.13;;;4.30;92.90;;;;;;4970930;28;20039;-63
2021/11/27 04:08:46;;;;;;;13.02;7.50;;;4.30;93.00;;;;;;4972038;28;20101;-63
2021/11/27 04:11:12;;;;;;;13.75;8.45;;;4.30;93.00;;;;;;4964429;28;20505;-62
2021/11/27 04:13:38;;;;;;;14.07;7.30;;;4.30;93.10;;;;;;4971742;28;20033;-63
2021/11/27 04:16:04;;;;;;;12.32;7.20;;;4.30;93.10;;;;;;4970604;28;20548;-63
2021/11/27 04:18:30;;;;;;;16.00;7.75;;;4.30;93.10;;;;;;4971543;28;20089;-64
2021/11/27 04:20:56;;;;;;;12.25;7.47;;;4.20;93.10;;;;;;4968639;28;20034;-63
2021/11/27 04:23:23;;;;;;;14.68;7.57;;;4.30;93.20;;;;;;4971524;28;20023;-63
2021/11/27 04:25:49;;;;;;;14.45;7.47;;;4.30;93.20;;;;;;4971025;28;20075;-63
2021/11/27 04:28:15;;;;;;;12.48;7.72;;;4.20;93.10;;;;;;4959859;28;20495;-63
2021/11/27 04:30:42;;;;;;;13.18;7.60;;;4.30;93.20;;;;;;4963751;28;20434;-63
2021/11/27 04:33:08;;;;;;;11.48;7.60;;;4.30;93.20;;;;;;4971646;28;20038;-63
2021/11/27 04:35:34;;;;;;;11.95;6.72;;;4.30;93.20;;;;;;4964523;28;20102;-63
2021/11/27 04:38:00;;;;;;;12.43;7.00;;;4.30;93.20;;;;;;4976541;28;20066;-63
2021/11/27 04:40:27;;;;;;;13.55;9.32;;;4.30;93.30;;;;;;4971400;28;20042;-63
2021/11/27 04:42:53;;;;;;;15.30;9.07;;;4.30;93.30;;;;;;4974930;28;20043;-63
2021/11/27 04:45:19;;;;;;;12.50;7.15;;;4.30;93.30;;;;;;4974933;28;20067;-62
2021/11/27 04:47:45;;;;;;;15.07;7.95;;;4.30;93.30;;;;;;4973639;28;20042;-63
2021/11/27 04:50:12;;;;;;;14.90;8.13;;;4.30;93.30;;;;;;4973033;28;20031;-63
2021/11/27 04:52:38;;;;;;;12.98;7.15;;;4.30;93.30;;;;;;4959107;28;20027;-62
2021/11/27 04:55:06;;;;;;;13.50;7.63;;;4.40;93.30;;;;;;4965612;28;20042;-63
2021/11/27 04:57:32;;;;;;;14.60;7.75;;;4.40;93.30;;;;;;4953580;29;20027;-62
2021/11/27 04:59:58;;;;;;;13.10;7.68;;;4.40;93.30;;;;;;4959229;28;20386;-62
2021/11/27 05:02:23;;;;;;;13.77;7.57;;;4.40;93.30;;;;;;4969641;28;20232;-62
2021/11/27 05:04:49;;;;;;;16.88;7.93;;;4.40;93.20;;;;;;4974661;28;20038;-62
2021/11/27 05:07:14;;;;;;;13.35;7.65;;;4.40;93.20;;;;;;4953187;28;20027;-63
2021/11/27 05:09:40;;;;;;;14.77;7.40;;;4.40;93.20;;;;;;4958705;28;20044;-63
2021/11/27 05:12:06;;;;;;;14.70;8.13;;;4.40;93.30;;;;;;4973600;28;20037;-63
2021/11/27 05:14:32;;;;;;;13.57;7.80;;;4.50;93.30;;;;;;4974725;28;20031;-63
2021/11/27 05:16:57;;;;;;;13.25;7.95;;;4.50;93.30;;;;;;4973148;28;20105;-63
2021/11/27 05:19:23;;;;;;;14.60;8.38;;;4.50;93.30;;;;;;4970650;28;20123;-63
2021/11/27 05:21:49;;;;;;;14.38;7.43;;;4.50;93.30;;;;;;4973657;28;20046;-63
2021/11/27 05:24:15;;;;;;;13.75;7.40;;;4.50;93.30;;;;;;4961154;28;20070;-63
2021/11/27 05:26:40;;;;;;;17.00;7.60;;;4.50;93.30;;;;;;4973259;28;20038;-63
2021/11/27 05:29:06;;;;;;;15.68;8.40;;;4.50;93.30;;;;;;4971435;28;20854;-63
2021/11/27 05:31:32;;;;;;;15.95;8.23;;;4.60;93.30;;;;;;4963174;28;20438;-63
2021/11/27 05:36:35;;;;;;;16.98;8.73;;;4.50;93.30;;;;;;4971919;28;20034;-63
2021/11/27 05:39:03;;;;;;;11.82;7.35;;;4.60;93.40;;;;;;4972059;28;20035;-63
2021/11/27 05:41:29;;;;;;;17.83;9.13;;;4.60;93.30;;;;;;4962333;28;20030;-63
2021/11/27 05:43:56;;;;;;;13.60;8.13;;;4.60;93.30;;;;;;4973476;28;20117;-63
2021/11/27 05:46:21;;;;;;;14.20;8.02;;;4.60;93.30;;;;;;4952731;28;20391;-63
2021/11/27 05:48:48;;;;;;;15.88;9.02;;;4.60;93.30;;;;;;4957029;28;20031;-63
2021/11/27 05:51:15;;;;;;;15.73;8.43;;;4.60;93.30;;;;;;4959562;28;20035;-63
2021/11/27 05:53:40;;;;;;;19.10;9.40;;;4.60;93.30;;;;;;4973727;28;20058;-63
2021/11/27 05:56:06;;;;;;;17.17;9.45;;;4.60;93.50;;;;;;4958170;28;20494;-63
2021/11/27 05:58:32;;;;;;;19.77;9.30;;;4.60;93.40;;;;;;4972134;28;20026;-64
2021/11/27 06:01:06;;;;;;;18.63;9.75;;;4.60;93.40;;;;;;4959535;28;20037;-62
2021/11/27 06:03:32;;;;;;;19.13;9.57;;;4.70;93.40;;;;;;4973683;28;20132;-62
2021/11/27 06:05:58;;;;;;;16.88;9.40;;;4.70;93.40;;;;;;4972683;28;20030;-62
2021/11/27 06:08:24;;;;;;;17.63;10.00;;;4.70;93.40;;;;;;4973539;28;20053;-63
2021/11/27 06:10:50;;;;;;;18.02;10.68;;;4.70;93.40;;;;;;4958663;28;20046;-64
2021/11/27 06:13:16;;;;;;;17.30;9.75;;;4.70;93.40;;;;;;4955781;28;20030;-63
2021/11/27 06:15:41;;;;;;;20.15;9.77;;;4.70;93.30;;;;;;4970309;28;20039;-62
2021/11/27 06:18:07;;;;;;;18.83;9.38;;;4.70;93.30;;;;;;4972310;28;20500;-63
2021/11/27 06:20:33;;;;;;;16.92;9.52;;;4.60;93.30;;;;;;4959245;28;20031;-62
2021/11/27 06:22:59;;;;;;;16.27;9.45;;;4.60;93.40;;;;;;4971432;28;20037;-62
2021/11/27 06:25:26;;;;;;;18.10;9.27;;;4.70;93.40;;;;;;4961438;28;20049;-62
2021/11/27 06:27:52;;;;;;;19.52;10.25;;;4.60;93.40;;;;;;4972697;28;20039;-62
2021/11/27 06:30:18;;;;;;;18.98;10.35;;;4.70;93.40;;;;;;4969820;28;20093;-62
2021/11/27 06:32:43;;;;;;;21.88;10.70;;;4.70;93.40;;;;;;4969378;28;20069;-62
2021/11/27 06:35:11;;;;;;;20.35;10.13;;;4.60;93.40;;;;;;4973400;28;20022;-62
2021/11/27 06:37:36;;;;;;;17.35;9.25;;;4.70;93.40;;;;;;4958187;28;20035;-63
2021/11/27 06:40:03;;;;;;;20.23;11.20;;;4.60;93.40;;;;;;4954862;28;20542;-63
2021/11/27 06:42:29;;;;;;;19.02;10.40;;;4.60;93.40;;;;;;4957104;28;20050;-63
2021/11/27 06:44:55;;;;;;;20.63;10.40;;;4.60;93.40;;;;;;4963609;28;20386;-63
2021/11/27 06:47:22;;;;;;;22.75;11.50;;;4.60;93.40;;;;;;4971771;28;20123;-63
2021/11/27 06:49:49;;;;;;;21.17;11.30;;;4.60;93.50;;;;;;4966389;28;20474;-63
2021/11/27 06:52:16;;;;;;;21.88;11.52;;;4.60;93.50;;;;;;4962020;28;20027;-63
2021/11/27 06:54:42;;;;;;;19.52;11.43;;;4.60;93.50;;;;;;4970319;28;20058;-63
2021/11/27 06:57:09;;;;;;;22.83;12.57;;;4.60;93.50;;;;;;4965175;28;20089;-63
2021/11/27 06:59:36;;;;;;;22.33;11.95;;;4.60;93.60;;;;;;4969770;28;20073;-63
2021/11/27 07:02:02;;;;;;;21.75;11.82;;;4.60;93.60;;;;;;4953604;28;20372;-63
2021/11/27 07:04:28;;;;;;;22.70;12.35;;;4.60;93.60;;;;;;4957522;28;20110;-63
2021/11/27 07:06:54;;;;;;;23.98;13.15;;;4.50;93.60;;;;;;4958013;28;20027;-63
2021/11/27 07:09:20;;;;;;;22.95;11.30;;;4.50;93.60;;;;;;4970616;28;20035;-63
2021/11/27 07:11:45;;;;;;;21.20;12.35;;;4.60;93.60;;;;;;4968218;28;20027;-63
2021/11/27 07:14:11;;;;;;;24.85;12.38;;;4.60;93.60;;;;;;4972701;28;20038;-63
2021/11/27 07:16:37;;;;;;;24.40;11.60;;;4.60;93.70;;;;;;4964055;28;20039;-63
2021/11/27 07:19:03;;;;;;;23.45;12.48;;;4.60;93.70;;;;;;4967152;28;20481;-63
2021/11/27 07:21:29;;;;;;;21.17;11.80;;;4.60;93.70;;;;;;4951746;28;20501;-63
2021/11/27 07:23:55;;;;;;;21.52;11.52;;;4.60;93.70;;;;;;4968302;28;20035;-63
2021/11/27 07:26:21;;;;;;;27.20;12.30;;;4.70;93.70;;;;;;4971479;28;20038;-63
2021/11/27 07:28:48;;;;;;;23.98;13.10;;;4.70;93.70;;;;;;4972682;28;20027;-63
2021/11/27 07:31:14;;;;;;;24.55;13.35;;;4.70;93.80;;;;;;4969672;28;20143;-62
2021/11/27 07:33:39;;;;;;;25.02;13.35;;;4.70;93.80;;;;;;4961843;28;20038;-63
2021/11/27 07:36:06;;;;;;;22.70;12.25;;;4.80;93.80;;;;;;4958960;28;21599;-63
2021/11/27 07:38:32;;;;;;;25.70;13.55;;;4.80;93.70;;;;;;4952133;28;20455;-63
2021/11/27 07:40:59;;;;;;;24.55;13.32;;;4.90;93.70;;;;;;4961647;28;20471;-63
2021/11/27 07:43:25;;;;;;;25.60;13.38;;;4.90;93.70;;;;;;4963244;28;20037;-63
2021/11/27 07:45:50;;;;;;;24.63;12.93;;;4.90;93.70;;;;;;4959662;28;20065;-63
2021/11/27 07:48:16;;;;;;;26.08;13.02;;;5.00;93.70;;;;;;4959296;28;20027;-64
2021/11/27 07:50:42;;;;;;;25.02;13.15;;;5.00;93.60;;;;;;4971031;28;20035;-63
2021/11/27 07:53:08;;;;;;;25.60;13.07;;;5.00;93.60;;;;;;4944964;28;20023;-64
2021/11/27 07:55:34;;;;;;;22.80;13.00;;;5.00;93.60;;;;;;4966940;28;20050;-63
2021/11/27 07:58:00;;;;;;;25.33;13.73;;;5.10;93.60;;;;;;4962866;28;20133;-63
2021/11/27 08:00:26;;;;;;;26.70;13.25;;;5.10;93.60;;;;;;4969916;28;20495;-63
2021/11/27 08:02:52;;;;;;;26.25;14.57;;;5.20;93.60;;;;;;4960532;28;20058;-64
2021/11/27 08:05:18;;;;;;;25.38;13.18;;;5.30;93.60;;;;;;4958618;28;20114;-63
2021/11/27 08:07:43;;;;;;;25.45;14.15;;;5.30;93.50;;;;;;4960500;28;22339;-63
2021/11/27 08:10:11;;;;;;;28.33;14.30;;;5.40;93.40;;;;;;4957331;28;20109;-63
2021/11/27 08:12:37;;;;;;;25.17;13.20;;;5.40;93.40;;;;;;4968432;28;20059;-63
2021/11/27 08:15:04;;;;;;;25.30;13.48;;;5.40;93.30;;;;;;4963085;28;20065;-63
2021/11/27 08:17:30;;;;;;;25.58;13.52;;;5.50;93.30;;;;;;4966337;28;20039;-63
2021/11/27 08:19:56;;;;;;;28.80;13.88;;;5.50;93.20;;;;;;4964174;28;20041;-63
2021/11/27 08:22:22;;;;;;;25.60;14.25;;;5.60;93.20;;;;;;4948566;28;20495;-64
2021/11/27 08:24:49;;;;;;;27.67;13.48;;;5.70;93.10;;;;;;4962535;28;20043;-64
2021/11/27 08:27:15;;;;;;;23.35;13.35;;;5.70;93.20;;;;;;4956146;28;20034;-63
2021/11/27 08:29:41;;;;;;;27.90;13.80;;;5.80;93.10;;;;;;4966426;28;20034;-64
2021/11/27 08:32:07;;;;;;;22.25;13.13;;;5.80;93.00;;;;;;4965929;28;20030;-64
2021/11/27 08:34:33;;;;;;;24.23;12.65;;;5.90;93.00;;;;;;4965047;28;20512;-63
2021/11/27 08:36:59;;;;;;;27.33;13.95;;;5.90;92.90;;;;;;4966952;28;20035;-64
2021/11/27 08:39:24;;;;;;;23.83;13.30;;;6.00;93.00;;;;;;4971853;28;20372;-63
2021/11/27 08:41:50;;;;;;;24.00;13.50;;;6.10;92.80;;;;;;4974298;28;20031;-64
2021/11/27 08:47:44;;;;;;;26.15;14.77;;;6.20;92.60;;;;;;4948663;29;20063;-63
2021/11/27 08:50:11;;;;;;;23.58;12.65;;;6.20;92.50;;;;;;4956531;28;20031;-64
2021/11/27 08:52:37;;;;;;;25.02;13.23;;;6.30;92.40;;;;;;4954307;29;20135;-64
2021/11/27 08:55:03;;;;;;;23.70;13.15;;;6.30;92.40;;;;;;4955810;29;20123;-63
2021/11/27 08:57:29;;;;;;;22.73;12.25;;;6.40;92.30;;;;;;4953864;28;20035;-63
2021/11/27 08:59:55;;;;;;;23.63;11.98;;;6.40;92.20;;;;;;4955008;28;20034;-63
2021/11/27 09:02:21;;;;;;;26.48;14.02;;;6.40;92.20;;;;;;4936403;29;20438;-63
2021/11/27 09:04:46;;;;;;;21.25;12.65;;;6.40;92.10;;;;;;4936069;29;20031;-63
2021/11/27 09:07:12;;;;;;;24.65;13.65;;;6.40;92.00;;;;;;4936317;29;20027;-63
2021/11/27 09:09:38;;;;;;;25.33;13.63;;;6.50;91.90;;;;;;4937442;29;20063;-63
2021/11/27 09:12:06;;;;;;;23.33;13.60;;;6.50;91.80;;;;;;4936497;29;20063;-63
2021/11/27 09:14:33;;;;;;;23.60;13.27;;;6.50;91.80;;;;;;4936153;29;20533;-64
2021/11/27 09:16:59;;;;;;;26.35;13.98;;;6.50;91.70;;;;;;4957695;28;20066;-64
2021/11/27 09:19:25;;;;;;;23.05;13.25;;;6.50;91.70;;;;;;4943299;29;20086;-64
2021/11/27 09:21:51;;;;;;;24.63;13.57;;;6.50;91.60;;;;;;4935509;29;20035;-63
2021/11/27 09:24:20;;;;;;;26.55;14.23;;;6.60;91.60;;;;;;4950893;29;20229;-63
2021/11/27 09:26:46;;;;;;;22.77;13.15;;;6.60;91.60;;;;;;4954660;28;20027;-63
2021/11/27 09:29:17;;;;;;;24.77;13.20;;;6.70;91.50;;;;;;4953703;28;20118;-64
2021/11/27 09:31:44;;;;;;;22.60;12.98;;;6.70;91.50;;;;;;4935770;29;20502;-63
2021/11/27 09:34:11;;;;;;;25.70;13.68;;;6.70;91.40;;;;;;4938000;29;20046;-62
2021/11/27 09:36:38;;;;;;;26.77;13.55;;;6.70;91.40;;;;;;4948244;28;20039;-63
2021/11/27 09:39:09;;;;;;;28.10;14.02;;;6.80;91.40;;;;;;4935821;29;20027;-63
2021/11/27 09:41:36;;;;;;;23.77;12.95;;;6.80;91.40;;;;;;4953122;29;20112;-62
2021/11/27 09:44:05;;;;;;;26.85;14.23;;;6.80;91.40;;;;;;4949825;28;20185;-63
2021/11/27 09:46:33;;;;;;;26.42;13.75;;;6.80;91.20;;;;;;4935473;29;20048;-63
2021/11/27 09:49:02;;;;;;;24.55;13.88;;;6.80;91.20;;;;;;4942796;29;20561;-62
2021/11/27 09:51:31;;;;;;;24.83;13.90;;;6.90;91.20;;;;;;4949471;28;20032;-63
2021/11/27 09:53:59;;;;;;;22.98;13.60;;;6.90;91.10;;;;;;4934436;29;20367;-63
2021/11/27 09:56:26;;;;;;;23.10;13.85;;;6.90;91.10;;;;;;4935491;29;20031;-63
2021/11/27 09:58:53;;;;;;;21.40;12.90;;;6.90;91.00;;;;;;4933173;29;20028;-62
2021/11/27 10:01:23;;;;;;;23.25;12.90;;;6.90;91.00;;;;;;4949060;29;20040;-63
2021/11/27 10:03:58;;;;;;;21.05;12.65;;;7.00;91.00;;;;;;4935300;29;20028;-63
2021/11/27 10:06:25;;;;;;;22.95;12.75;;;6.90;91.00;;;;;;4935044;29;20036;-63
2021/11/27 10:08:51;;;;;;;24.40;12.20;;;7.00;91.00;;;;;;4934465;29;20573;-62
2021/11/27 10:11:17;;;;;;;23.58;12.77;;;7.00;90.90;;;;;;4933074;29;20118;-63
2021/11/27 10:13:42;;;;;;;21.70;12.73;;;7.10;90.90;;;;;;4934965;29;20459;-63
2021/11/27 10:16:08;;;;;;;21.63;12.90;;;7.10;90.90;;;;;;4949815;29;20027;-63
2021/11/27 10:18:34;;;;;;;23.83;13.32;;;7.10;90.80;;;;;;4934650;29;20028;-63
2021/11/27 10:21:21;;;;;;;24.65;13.57;;;7.20;90.80;;;;;;4933574;29;20043;-63
2021/11/27 10:23:49;;;;;;;21.08;12.15;;;7.20;90.70;;;;;;4933530;29;20028;-63
2021/11/27 10:26:37;;;;;;;22.15;12.77;;;7.30;90.70;;;;;;4933098;29;20028;-63
2021/11/27 10:29:18;;;;;;;28.23;13.25;;;7.30;90.70;;;;;;4926462;29;20385;-62
2021/11/27 10:31:50;;;;;;;23.13;13.10;;;7.30;90.70;;;;;;4934870;29;20036;-63
2021/11/27 10:34:23;;;;;;;24.00;12.70;;;7.30;90.50;;;;;;4934343;29;20047;-63
2021/11/27 10:36:51;;;;;;;22.67;12.90;;;7.40;90.50;;;;;;4934709;29;20067;-63
2021/11/27 10:39:17;;;;;;;21.30;11.60;;;7.40;90.50;;;;;;4931594;29;20032;-64
2021/11/27 10:41:56;;;;;;;21.35;12.05;;;7.40;90.40;;;;;;4928592;29;20040;-64
2021/11/27 10:44:36;;;;;;;22.88;13.10;;;7.40;90.40;;;;;;4915654;29;20043;-64
2021/11/27 10:47:12;;;;;;;19.70;11.60;;;7.40;90.40;;;;;;4931552;29;20106;-64
2021/11/27 10:49:39;;;;;;;20.52;12.68;;;7.40;90.30;;;;;;4947421;29;20027;-64
2021/11/27 10:52:12;;;;;;;21.70;11.65;;;7.40;90.20;;;;;;4953667;28;20057;-64
2021/11/27 10:54:56;;;;;;;21.88;11.20;;;7.40;90.20;;;;;;4968518;28;20035;-64
2021/11/27 10:57:29;;;;;;;19.63;11.65;;;7.50;90.20;;;;;;4938315;28;20339;-64
2021/11/27 10:59:56;;;;;;;21.27;11.77;;;7.50;90.20;;;;;;4933509;29;20122;-64
2021/11/27 11:02:25;;;;;;;24.40;12.52;;;7.40;90.20;;;;;;4934578;29;20419;-64
2021/11/27 11:05:21;;;;;;;21.83;12.70;;;7.50;90.20;;;;;;4931813;29;20052;-64
2021/11/27 11:07:54;;;;;;;20.67;12.75;;;7.50;90.20;;;;;;4918334;29;20451;-63
2021/11/27 11:10:22;;;;;;;20.23;11.80;;;7.50;90.10;;;;;;4930803;29;20040;-64
2021/11/27 11:12:54;;;;;;;22.40;11.63;;;7.50;90.10;;;;;;4932305;29;20152;-63
2021/11/27 11:15:21;;;;;;;21.13;12.68;;;7.50;90.10;;;;;;4932077;29;20028;-63
2021/11/27 11:17:50;;;;;;;20.48;11.65;;;7.50;90.40;;;;;;4932658;29;20503;-63
2021/11/27 11:20:16;;;;;;;22.90;11.63;;;7.50;90.10;;;;;;4932734;29;20039;-63
2021/11/27 11:22:57;;;;;;;21.38;13.13;;;7.50;90.20;;;;;;4932979;29;20032;-63
2021/11/27 11:25:24;;;;;;;22.42;11.95;;;7.50;90.30;;;;;;4928375;29;20032;-63
2021/11/27 11:27:50;;;;;;;23.73;13.60;;;7.50;90.00;;;;;;4931083;29;20510;-63
2021/11/27 11:30:20;;;;;;;21.60;12.70;;;7.50;90.10;;;;;;4931434;29;20083;-63
2021/11/27 11:32:46;;;;;;;20.52;12.32;;;7.50;90.00;;;;;;4933897;29;20518;-64
2021/11/27 11:35:13;;;;;;;22.02;11.88;;;7.50;90.10;;;;;;4932079;29;20036;-64
2021/11/27 11:37:39;;;;;;;20.00;12.32;;;7.50;90.00;;;;;;4932245;29;20078;-64
2021/11/27 11:40:05;;;;;;;21.70;12.77;;;7.50;90.00;;;;;;4927616;29;20044;-63
2021/11/27 11:42:32;;;;;;;21.40;12.88;;;7.50;90.00;;;;;;4932129;28;20210;-63
2021/11/27 11:44:58;;;;;;;21.90;13.80;;;7.50;90.10;;;;;;4929006;29;20331;-63
2021/11/27 11:47:24;;;;;;;22.48;12.65;;;7.50;90.00;;;;;;4936518;29;20131;-63
2021/11/27 11:50:07;;;;;;;22.90;12.63;;;7.50;90.00;;;;;;4935647;29;20511;-62
2021/11/27 11:52:55;;;;;;;19.63;12.45;;;7.50;90.00;;;;;;4936237;29;20606;-63
2021/11/27 11:55:21;;;;;;;23.25;13.30;;;7.50;90.10;;;;;;4929448;29;20082;-63
2021/11/27 11:57:56;;;;;;;22.25;12.60;;;7.50;90.30;;;;;;4951393;28;20486;-63
2021/11/27 12:00:23;;;;;;;25.58;12.65;;;7.50;90.60;;;;;;4931873;29;20453;-63
2021/11/27 12:02:49;;;;;;;19.60;12.32;;;7.50;90.50;;;;;;4935103;29;20059;-64
2021/11/27 12:05:16;;;;;;;21.83;11.90;;;7.50;90.80;;;;;;4935094;29;20135;-63
2021/11/27 12:07:44;;;;;;;20.08;12.13;;;7.50;90.60;;;;;;4930050;29;20487;-63
2021/11/27 12:10:34;;;;;;;22.23;12.20;;;7.50;90.60;;;;;;4937759;29;20035;-63
2021/11/27 12:13:06;;;;;;;20.88;12.25;;;7.60;90.60;;;;;;4933146;29;20034;-63
2021/11/27 12:15:39;;;;;;;22.60;12.20;;;7.50;90.40;;;;;;4932569;29;21375;-63
2021/11/27 12:18:06;;;;;;;23.58;13.55;;;7.50;90.40;;;;;;4927795;29;20031;-63
2021/11/27 12:20:52;;;;;;;22.40;13.25;;;7.60;90.60;;;;;;4932543;29;20390;-63
2021/11/27 12:23:42;;;;;;;21.33;12.07;;;7.60;90.30;;;;;;4934626;29;20059;-63
2021/11/27 12:28:34;;;;;;;22.50;13.00;;;7.50;90.20;;;;;;4930640;29;20146;-63
2021/11/27 12:31:07;;;;;;;24.08;13.65;;;7.50;90.30;;;;;;4935991;29;20036;-63
2021/11/27 12:33:48;;;;;;;18.98;12.07;;;7.50;90.40;;;;;;4931249;29;20030;-63
2021/11/27 12:36:26;;;;;;;21.13;11.40;;;7.50;90.40;;;;;;4929958;29;20029;-63
2021/11/27 12:38:58;;;;;;;21.63;12.75;;;7.60;90.60;;;;;;4937060;29;20024;-63
2021/11/27 12:41:37;;;;;;;23.00;12.93;;;7.60;90.50;;;;;;4935047;29;20451;-63
2021/11/27 12:44:15;;;;;;;20.83;12.77;;;7.60;90.50;;;;;;4935752;29;20036;-62
2021/11/27 12:47:23;;;;;;;21.17;12.15;;;7.60;90.70;;;;;;4934054;29;20056;-62
2021/11/27 12:49:54;;;;;;;23.90;13.02;;;7.60;90.70;;;;;;4955335;28;20042;-63
2021/11/27 12:52:28;;;;;;;23.05;13.80;;;7.60;90.70;;;;;;4928602;29;20030;-63
2021/11/27 12:54:55;;;;;;;25.15;14.70;;;7.60;90.80;;;;;;4934874;29;20046;-63